メインページ
METAR-TAF:

METAR-TAF

空港 :

Cut Bank, モンタナ州, アメリカ合衆国

緯度: 48-36-30N, 経度: 112-22-34W, 海抜: 1175m

現時点の気象観測

当レポートは39分前の03:56(UTC)に作成
南東の風 5kt
気温 -2°C
湿度 86%
気圧 1011 hPa
視程: 16.1km
高度10000ftの千切れ雲あり

METAR: KCTB 270356Z AUTO 14005KT 10SM BKN100 M02/M04 A2985 RMK AO2 SLP150 T10171039

時間: 21:35 (04:35 UTC)

予報

当レポートは5時間4分前の23:31(UTC)に作成
予報は27日の 00時(UTC)から 27日の 24時(UTC)まで有効
変向風 6kt
視程: 10km
高度7000ftの千切れ雲あり
27日の 0600時(UTC)から
西/南西の風 8kt
視程: 10km
高度3000ftの雲は散在している
高度8000ftの千切れ雲あり
近辺でにわか雨
27日の 06時(UTC)から 27日の 10時(UTC)まで一時的に
高度3000ftの千切れ雲あり
27日の 1100時(UTC)から
西の風 10kt、最大18ktの突風を伴う
視程: 10km
高度4000ftの雲はほとんどない
高度10000ftの千切れ雲あり
27日の 1800時(UTC)から
西の風 24kt、最大31ktの突風を伴う
視程: 10km
高度10000ftの千切れ雲あり

TAF: KCTB 262331Z 2700/2724 VRB06KT P6SM BKN070 FM270600 24008KT P6SM VCSH SCT030 BKN080 TEMPO 2706/2710 BKN030 FM271100 26010G18KT P6SM FEW040 BKN100 FM271800 27024G31KT P6SM BKN100

4,000以上の空港の気象観測と天気予報(METAR報とTAF報)

利用可能な観測所は地図上に黄色い丸と赤い丸で示す。

丸の上にカーソルを重ねると観測所名を参照できる。

次にクリックすると気象観測と天気予報を参照できる。

マップの切り替え:黒色「×」印の緑ボタンをクリックして拡大、「-」印の緑ボタンをクリックして縮小、緑色の三角印をクリックして隣りの地図に切り替え


METAR-TAF: